Airfield :
LOGIN :

Register | Disclaimer

   EN    FR    IT 

 










Legend :    VFR   Marginal VFR   IFR   Intensive IFR   Very Intensive IFR
Visi :
Ceiling :
>= 8 km
>= 3000ft
5 to 8 km
1000 to 3000 ft
1500m to 5 km
500 to 1000 ft
800 to 1500m
200 to 500 ft
< 800m
< 200 ft
Symbols :   Thunderstorms  Fog  Heavy snow  Heavy precipitations  Wind > 20 kt
SIGMETs :     Misc.  Thunderstorms  Icing  Turbulence  Mountain Waves  Volcanic Ashes







- Airport Elevation : 1789 ft
- IATA code : PRN


BKPR - Pristina

CURRENT METAR :
  • 170730Z VRB02KT 9999 SCT030 BKN060 18/15 Q1011 NOSIG

EXPIRED METARs :
  • 170700Z 12004KT 9999 SCT030 BKN050 18/15 Q1011 NOSIG
  • 170630Z VRB03KT 9999 SCT025 BKN060 18/15 Q1012 NOSIG
  • 170600Z VRB03KT 9999 -SHRA FEW010 FEW035CB BKN050 17/15 Q1012 NOSIG
  • 170530Z 06006KT 350V090 4000 -SHRA FEW025CB SCT030 BKN050 17/14 Q1012 RETS TEMPO -TSRA
  • 170500Z 31004KT 5000 -SHRA FEW025CB SCT030 BKN050 18/15 Q1012 TEMPO 3000 TSRA
  • 170430Z VRB03KT 9999 -SHRA FEW030CB SCT040 BKN060 17/15 Q1011 TEMPO 4000 TSRA

TAF TAF BKPR
Valid from the 17 at 06:00 until the 18 at 06:00 UTC


170530Z 1706/1806 35008KT 9999 SCT030 BKN050
TEMPO 1706/1718 VRB15G25KT 3000 TSRA SCT025CB
BECMG 1803/1805 1200 BR
No reported NOTAMs for that airfield.



MET'MAP, your aeronautical weather chart ! - Copyright ORBIFLY December 2007 - Disclaimer

ORBIFLY MET'MAP TEAM :

Programming & Development : Alexandra Zaïnal
Concept & Development : Baudouin d'Aumeries
Co-Development & Prog : Marc-Olivier Méhu
Technical & hardware support : Manuel Goepfert

Contact : metmap@orbifly.com




SOURCES & CREDITS :

   NOAA